createdAt,value
2022-11-11T00:00:27.929Z,100772.72
2022-11-11T00:01:48.569Z,100782.31
2022-11-11T00:03:09.478Z,100784.09
2022-11-11T00:04:30.121Z,100778.03
2022-11-11T00:05:50.907Z,100778.94
2022-11-11T00:07:11.995Z,100778.06
2022-11-11T00:08:32.866Z,100779.81
2022-11-11T00:09:53.492Z,100784.19
2022-11-11T00:11:15.942Z,100785.06
2022-11-11T00:12:36.905Z,100792.06
2022-11-11T00:13:57.746Z,100785.13
2022-11-11T00:15:18.588Z,100777.31
2022-11-11T00:16:57.639Z,100780.78
2022-11-11T00:18:51.142Z,100777.28
2022-11-11T00:20:34.698Z,100769.44
2022-11-11T00:22:14.344Z,100776.34
2022-11-11T00:23:53.771Z,100784.97
2022-11-11T00:25:17.418Z,100785.75
2022-11-11T00:26:40.024Z,100789.22
2022-11-11T00:28:01.608Z,100799.53
2022-11-11T00:29:22.461Z,100798.69
2022-11-11T00:30:43.235Z,100804.00
2022-11-11T00:32:23.521Z,100805.78
2022-11-11T00:33:44.624Z,100801.47
2022-11-11T00:35:24.276Z,100803.28
2022-11-11T00:36:45.059Z,100799.78
2022-11-11T00:38:32.901Z,100799.75
2022-11-11T00:39:53.786Z,100796.16
2022-11-11T00:41:19.457Z,100796.91
2022-11-11T00:42:40.373Z,100798.63
2022-11-11T00:44:01.029Z,100802.94
2022-11-11T00:45:21.925Z,100792.59
2022-11-11T00:47:01.145Z,100801.38
2022-11-11T00:48:40.346Z,100803.16
2022-11-11T00:50:19.852Z,100802.34
2022-11-11T00:51:41.217Z,100801.47
2022-11-11T00:53:04.546Z,100798.88
2022-11-11T00:54:25.037Z,100800.59
2022-11-11T00:55:45.846Z,100797.22
2022-11-11T00:57:06.487Z,100800.66
2022-11-11T00:58:28.547Z,100798.03
2022-11-11T00:59:49.925Z,100803.25
2022-11-11T01:01:10.693Z,100800.63
2022-11-11T01:02:31.534Z,100804.97
2022-11-11T01:03:52.720Z,100800.66
2022-11-11T01:05:13.860Z,100806.75
2022-11-11T01:06:34.960Z,100806.75
2022-11-11T01:07:56.192Z,100804.13
2022-11-11T01:09:18.253Z,100806.66
2022-11-11T01:10:38.913Z,100807.56
2022-11-11T01:12:00.117Z,100808.50
2022-11-11T01:13:23.875Z,100807.63
2022-11-11T01:14:44.529Z,100810.22
2022-11-11T01:16:08.187Z,100807.75
2022-11-11T01:17:30.083Z,100808.59
2022-11-11T01:18:51.991Z,100813.84
2022-11-11T01:20:12.753Z,100807.78
2022-11-11T01:21:34.110Z,100813.81
2022-11-11T01:22:55.947Z,100820.72
2022-11-11T01:24:17.348Z,100825.66
2022-11-11T01:25:40.601Z,100832.47
2022-11-11T01:27:01.640Z,100828.34
2022-11-11T01:28:22.509Z,100830.06
2022-11-11T01:29:43.453Z,100829.19
2022-11-11T01:31:07.559Z,100825.84
2022-11-11T01:32:28.548Z,100829.22
2022-11-11T01:33:49.437Z,100825.56
2022-11-11T01:35:10.198Z,100823.81
2022-11-11T01:36:30.900Z,100822.09
2022-11-11T01:37:51.856Z,100816.25
2022-11-11T01:39:12.797Z,100816.19
2022-11-11T01:40:44.267Z,100815.28
2022-11-11T01:42:05.269Z,100819.63
2022-11-11T01:43:26.167Z,100816.19
2022-11-11T01:44:52.738Z,100816.19
2022-11-11T01:46:44.213Z,100812.84
2022-11-11T01:48:26.584Z,100811.09
2022-11-11T01:49:56.182Z,100817.13
2022-11-11T01:51:40.253Z,100819.72
2022-11-11T01:53:01.151Z,100817.09
2022-11-11T01:54:41.914Z,100822.28
2022-11-11T01:56:04.088Z,100815.34
2022-11-11T01:57:45.971Z,100811.84
2022-11-11T01:59:11.683Z,100814.44
2022-11-11T02:00:33.279Z,100810.97
2022-11-11T02:01:54.003Z,100818.06
2022-11-11T02:03:15.144Z,100823.88
2022-11-11T02:04:55.536Z,100820.44
2022-11-11T02:06:16.899Z,100829.97
2022-11-11T02:07:39.374Z,100826.53
2022-11-11T02:09:00.966Z,100837.00
2022-11-11T02:10:25.501Z,100833.50
2022-11-11T02:12:05.124Z,100836.97
2022-11-11T02:13:44.821Z,100832.66
2022-11-11T02:15:06.820Z,100830.03
2022-11-11T02:16:28.058Z,100831.63
2022-11-11T02:17:50.077Z,100838.44
2022-11-11T02:19:11.264Z,100830.72
2022-11-11T02:20:36.857Z,100834.22
2022-11-11T02:22:01.839Z,100820.31
2022-11-11T02:23:28.657Z,100822.94
2022-11-11T02:24:52.373Z,100815.97
2022-11-11T02:26:16.958Z,100820.16
2022-11-11T02:27:42.956Z,100816.63
2022-11-11T02:29:10.390Z,100822.75
2022-11-11T02:30:31.312Z,100814.81
2022-11-11T02:31:51.844Z,100827.00
2022-11-11T02:33:12.716Z,100816.66
2022-11-11T02:34:34.778Z,100821.91
2022-11-11T02:35:58.761Z,100817.63
2022-11-11T02:37:25.159Z,100816.63
2022-11-11T02:38:46.095Z,100820.97
2022-11-11T02:40:08.873Z,100805.38
2022-11-11T02:41:47.794Z,100813.06
2022-11-11T02:43:08.760Z,100813.94
2022-11-11T02:44:29.505Z,100798.03
2022-11-11T02:45:50.263Z,100811.88
2022-11-11T02:47:11.218Z,100807.38
2022-11-11T02:48:32.473Z,100806.47
2022-11-11T02:49:53.580Z,100809.94
2022-11-11T02:51:14.427Z,100809.03
2022-11-11T02:52:35.305Z,100812.50
2022-11-11T02:53:59.123Z,100814.25
2022-11-11T02:55:19.971Z,100819.44
2022-11-11T02:56:59.780Z,100812.66
2022-11-11T02:58:20.872Z,100807.31
2022-11-11T02:59:41.780Z,100814.19
2022-11-11T03:01:02.487Z,100816.69
2022-11-11T03:02:27.384Z,100807.97
2022-11-11T03:03:48.239Z,100810.81
2022-11-11T03:05:09.522Z,100805.72
2022-11-11T03:06:30.891Z,100816.00
2022-11-11T03:07:51.889Z,100815.06
2022-11-11T03:09:13.138Z,100812.53
2022-11-11T03:10:33.983Z,100817.78
2022-11-11T03:11:55.231Z,100808.41
2022-11-11T03:13:16.106Z,100809.28
2022-11-11T03:14:37.199Z,100810.69
2022-11-11T03:15:58.332Z,100807.13
2022-11-11T03:17:37.545Z,100800.41
2022-11-11T03:18:58.474Z,100788.28
2022-11-11T03:20:38.374Z,100803.69
2022-11-11T03:23:40.459Z,100801.25
2022-11-11T03:25:19.289Z,100796.88
2022-11-11T03:26:40.247Z,100811.41
2022-11-11T03:28:01.137Z,100806.84
2022-11-11T03:29:22.184Z,100814.00
2022-11-11T03:30:45.135Z,100813.16
2022-11-11T03:32:07.274Z,100815.84
2022-11-11T03:33:27.932Z,100816.72
2022-11-11T03:34:48.589Z,100821.94
2022-11-11T03:36:09.492Z,100815.84
2022-11-11T03:37:48.529Z,100827.97
2022-11-11T03:39:09.948Z,100827.06
2022-11-11T03:40:30.928Z,100837.50
2022-11-11T03:41:51.681Z,100834.97
2022-11-11T03:43:13.632Z,100830.66
2022-11-11T03:44:34.465Z,100830.69
2022-11-11T03:45:57.483Z,100841.97
2022-11-11T03:47:18.504Z,100838.47
2022-11-11T03:48:39.230Z,100840.19
2022-11-11T03:49:59.741Z,100844.53
2022-11-11T03:51:20.307Z,100844.56
2022-11-11T03:52:43.239Z,100849.78
2022-11-11T03:54:03.769Z,100852.38
2022-11-11T03:55:24.598Z,100858.44
2022-11-11T03:56:45.228Z,100859.25
2022-11-11T03:58:05.877Z,100856.44
2022-11-11T03:59:26.736Z,100864.94
2022-11-11T04:00:47.436Z,100865.09
2022-11-11T04:02:30.891Z,100861.56
2022-11-11T04:04:10.164Z,100864.19
2022-11-11T04:05:49.429Z,100859.84
2022-11-11T04:07:30.327Z,100859.78
2022-11-11T04:09:09.594Z,100864.00
2022-11-11T04:10:31.669Z,100868.34
2022-11-11T04:11:53.403Z,100866.47
2022-11-11T04:13:32.795Z,100876.03
2022-11-11T04:15:11.926Z,100874.38
2022-11-11T04:16:33.400Z,100875.31
2022-11-11T04:17:53.909Z,100875.41
2022-11-11T04:19:37.776Z,100874.50
2022-11-11T04:21:16.520Z,100878.91
2022-11-11T04:22:42.020Z,100876.41
2022-11-11T04:24:03.259Z,100880.75
2022-11-11T04:25:42.836Z,100877.22
2022-11-11T04:27:07.097Z,100872.06
2022-11-11T04:28:46.228Z,100878.13
2022-11-11T04:30:07.843Z,100879.00
2022-11-11T04:31:28.954Z,100878.13
2022-11-11T04:32:49.427Z,100884.28
2022-11-11T04:34:10.528Z,100888.59
2022-11-11T04:35:31.058Z,100886.00
2022-11-11T04:36:51.813Z,100884.25
2022-11-11T04:38:38.726Z,100887.75
2022-11-11T04:40:18.130Z,100892.06
2022-11-11T04:42:01.759Z,100891.25
2022-11-11T04:43:19.881Z,100891.25
2022-11-11T04:44:58.888Z,100890.22
2022-11-11T04:46:19.916Z,100889.16
2022-11-11T04:47:56.993Z,100889.06
2022-11-11T04:49:17.833Z,100907.91
2022-11-11T04:50:40.895Z,100903.38
2022-11-11T04:52:20.159Z,100912.94
2022-11-11T04:53:41.165Z,100906.97
2022-11-11T04:55:21.992Z,100904.47
2022-11-11T04:56:50.155Z,100899.34
2022-11-11T04:58:11.837Z,100904.31
2022-11-11T04:59:32.731Z,100912.06
2022-11-11T05:00:53.511Z,100911.41
2022-11-11T05:02:32.981Z,100912.34
2022-11-11T05:03:53.763Z,100920.19
2022-11-11T05:05:14.738Z,100914.06
2022-11-11T05:06:58.953Z,100920.84
2022-11-11T05:08:38.915Z,100921.72
2022-11-11T05:10:00.023Z,100918.25
2022-11-11T05:11:36.482Z,100926.94
2022-11-11T05:13:22.411Z,100925.09
2022-11-11T05:15:02.929Z,100932.78
2022-11-11T05:16:46.544Z,100925.22
2022-11-11T05:18:26.879Z,100928.06
2022-11-11T05:20:05.945Z,100919.59
2022-11-11T05:21:29.646Z,100924.94
2022-11-11T05:22:50.349Z,100920.50
2022-11-11T05:24:29.755Z,100925.69
2022-11-11T05:25:50.490Z,100928.34
2022-11-11T05:27:11.277Z,100928.31
2022-11-11T05:28:31.914Z,100935.91
2022-11-11T05:29:52.972Z,100931.50
2022-11-11T05:31:13.776Z,100945.22
2022-11-11T05:32:34.770Z,100944.41
2022-11-11T05:33:55.450Z,100953.13
2022-11-11T05:35:17.665Z,100954.72
2022-11-11T05:36:38.275Z,100954.06
2022-11-11T05:38:20.745Z,100957.66
2022-11-11T05:39:41.200Z,100955.63
2022-11-11T05:41:02.038Z,100961.84
2022-11-11T05:42:23.134Z,100961.13
2022-11-11T05:43:43.998Z,100955.06
2022-11-11T05:45:05.025Z,100955.06
2022-11-11T05:46:25.761Z,100955.06
2022-11-11T05:47:46.843Z,100963.81
2022-11-11T05:49:17.144Z,100956.78
2022-11-11T05:50:41.246Z,100965.44
2022-11-11T05:52:02.343Z,100970.66
2022-11-11T05:53:24.561Z,100963.00
2022-11-11T05:54:46.273Z,100964.84
2022-11-11T05:56:06.843Z,100962.31
2022-11-11T05:57:27.747Z,100970.41
2022-11-11T05:58:50.787Z,100962.50
2022-11-11T06:00:12.171Z,100959.03
2022-11-11T06:01:33.794Z,100956.44
2022-11-11T06:02:54.807Z,100962.50
2022-11-11T06:04:18.469Z,100952.06
2022-11-11T06:05:39.563Z,100959.88
2022-11-11T06:07:00.146Z,100951.19
2022-11-11T06:08:20.832Z,100946.84
2022-11-11T06:09:41.565Z,100953.75
2022-11-11T06:11:02.180Z,100957.94
2022-11-11T06:12:23.819Z,100970.97
2022-11-11T06:13:44.518Z,100960.72
2022-11-11T06:15:05.753Z,100958.91
2022-11-11T06:16:26.759Z,100949.47
2022-11-11T06:17:47.385Z,100955.53
2022-11-11T06:19:08.200Z,100957.28
2022-11-11T06:20:30.038Z,100970.91
2022-11-11T06:22:00.786Z,100966.38
2022-11-11T06:23:22.946Z,100966.19
2022-11-11T06:25:04.225Z,100970.56
2022-11-11T06:26:25.373Z,100981.69
2022-11-11T06:27:46.155Z,100976.38
2022-11-11T06:29:06.827Z,100983.47
2022-11-11T06:30:47.953Z,100982.72
2022-11-11T06:32:08.167Z,100981.91
2022-11-11T06:33:28.981Z,100973.28
2022-11-11T06:34:49.459Z,100978.53
2022-11-11T06:36:13.484Z,100973.34
2022-11-11T06:37:34.388Z,100977.81
2022-11-11T06:38:55.161Z,100981.34
2022-11-11T06:40:24.377Z,100974.34
2022-11-11T06:41:45.249Z,100976.06
2022-11-11T06:43:05.878Z,100977.63
2022-11-11T06:44:26.435Z,100976.75
2022-11-11T06:45:54.423Z,100987.00
2022-11-11T06:47:15.985Z,100986.88
2022-11-11T06:48:37.393Z,100985.97
2022-11-11T06:49:58.440Z,100995.50
2022-11-11T06:51:19.235Z,100989.50
2022-11-11T06:52:39.861Z,100993.13
2022-11-11T06:54:00.707Z,100991.28
2022-11-11T06:55:22.000Z,100990.38
2022-11-11T06:56:42.563Z,100994.72
2022-11-11T06:58:16.747Z,100985.25
2022-11-11T06:59:37.938Z,100987.00
2022-11-11T07:00:58.623Z,100979.19
2022-11-11T07:02:19.324Z,100988.75
2022-11-11T07:03:39.876Z,100984.41
2022-11-11T07:05:00.847Z,100990.59
2022-11-11T07:06:21.369Z,100976.72
2022-11-11T07:07:41.964Z,100986.31
2022-11-11T07:09:02.677Z,100984.59
2022-11-11T07:10:23.337Z,100986.25
2022-11-11T07:11:44.160Z,100990.56
2022-11-11T07:13:06.231Z,100991.38
2022-11-11T07:14:27.275Z,100991.44
2022-11-11T07:15:48.078Z,100991.31
2022-11-11T07:17:09.028Z,100991.34
2022-11-11T07:18:30.004Z,100989.63
2022-11-11T07:19:50.697Z,100987.03
2022-11-11T07:21:11.589Z,100984.44
2022-11-11T07:22:38.125Z,100990.50
2022-11-11T07:23:59.082Z,100986.19
2022-11-11T07:25:19.759Z,100994.88
2022-11-11T07:26:40.457Z,100992.31
2022-11-11T07:28:01.244Z,100995.78
2022-11-11T07:29:22.081Z,101002.72
2022-11-11T07:30:42.991Z,100994.13
2022-11-11T07:32:03.707Z,101001.16
2022-11-11T07:33:24.912Z,100999.38
2022-11-11T07:34:45.965Z,100995.13
2022-11-11T07:38:28.203Z,100996.94
2022-11-11T07:39:49.174Z,100989.19
2022-11-11T07:41:10.023Z,100994.38
2022-11-11T07:42:31.648Z,100979.56
2022-11-11T07:43:52.893Z,100985.53
2022-11-11T07:45:14.793Z,100992.50
2022-11-11T07:46:35.413Z,100999.38
2022-11-11T07:47:56.150Z,101008.97
2022-11-11T07:49:16.814Z,100999.53
2022-11-11T07:50:37.699Z,101005.69
2022-11-11T07:51:58.270Z,101002.28
2022-11-11T07:53:19.238Z,101005.75
2022-11-11T07:54:40.123Z,100991.78
2022-11-11T07:56:01.103Z,101000.47
2022-11-11T07:57:22.086Z,101002.16
2022-11-11T07:58:42.825Z,100998.69
2022-11-11T08:00:04.876Z,101005.59
2022-11-11T08:01:25.518Z,101001.28
2022-11-11T08:02:49.561Z,101005.63
2022-11-11T08:04:10.159Z,101003.91
2022-11-11T08:05:30.823Z,101004.81
2022-11-11T08:06:51.425Z,100996.16
2022-11-11T08:08:12.174Z,101001.41
2022-11-11T08:09:35.013Z,101003.03
2022-11-11T08:10:56.039Z,101002.19
2022-11-11T08:12:35.413Z,101013.56
2022-11-11T08:13:56.128Z,101008.28
2022-11-11T08:15:16.643Z,100998.72
2022-11-11T08:16:37.392Z,101011.72
2022-11-11T08:17:57.922Z,101003.16
2022-11-11T08:19:18.476Z,101007.50
2022-11-11T08:20:44.309Z,101008.41
2022-11-11T08:22:06.322Z,101003.28
2022-11-11T08:25:15.052Z,101000.69
2022-11-11T08:26:35.782Z,100995.56
2022-11-11T08:28:04.306Z,101000.75
2022-11-11T08:29:24.777Z,100996.44
2022-11-11T08:30:45.880Z,100996.50
2022-11-11T08:32:06.651Z,101002.59
2022-11-11T08:33:35.501Z,100999.97
2022-11-11T08:34:56.384Z,101005.22
2022-11-11T08:36:20.812Z,101004.34
2022-11-11T08:37:49.015Z,100996.53
2022-11-11T08:39:09.888Z,100991.28
2022-11-11T08:40:30.600Z,100989.53
2022-11-11T08:41:51.177Z,100987.78
2022-11-11T08:43:12.224Z,100993.84
2022-11-11T08:44:33.429Z,100992.97
2022-11-11T08:45:54.451Z,101000.81
2022-11-11T08:47:15.205Z,100994.63
2022-11-11T08:48:35.695Z,100992.81
2022-11-11T08:49:56.196Z,100987.38
2022-11-11T08:51:16.795Z,100998.75
2022-11-11T08:52:37.506Z,100984.66
2022-11-11T08:53:58.127Z,100990.69
2022-11-11T08:55:19.568Z,100993.19
2022-11-11T08:56:40.360Z,100999.34
2022-11-11T08:58:03.516Z,100993.78
2022-11-11T08:59:24.085Z,100998.25
2022-11-11T09:00:44.863Z,100991.31
2022-11-11T09:02:05.562Z,100999.22
2022-11-11T09:03:26.558Z,101011.47
2022-11-11T09:04:50.515Z,101000.91
2022-11-11T09:06:15.498Z,101009.53
2022-11-11T09:07:36.228Z,101009.72
2022-11-11T09:08:56.732Z,101000.88
2022-11-11T09:10:17.620Z,101000.88
2022-11-11T09:11:38.456Z,101002.47
2022-11-11T09:12:59.878Z,101005.28
2022-11-11T09:14:21.329Z,101005.91
2022-11-11T09:15:42.254Z,100996.50
2022-11-11T09:17:03.103Z,101007.94
2022-11-11T09:18:23.757Z,101002.91
2022-11-11T09:19:44.469Z,100991.44
2022-11-11T09:21:06.079Z,100995.59
2022-11-11T09:22:26.681Z,100991.34
2022-11-11T09:23:47.163Z,100994.19
2022-11-11T09:25:08.396Z,100995.78
2022-11-11T09:26:29.106Z,100981.38
2022-11-11T09:27:57.345Z,100987.31
2022-11-11T09:29:19.077Z,100983.91
2022-11-11T09:30:39.520Z,100983.88
2022-11-11T09:32:00.449Z,100979.38
2022-11-11T09:33:21.030Z,100977.72
2022-11-11T09:34:42.247Z,100980.38
2022-11-11T09:36:03.279Z,100978.41
2022-11-11T09:37:24.156Z,100976.28
2022-11-11T09:38:48.482Z,100975.28
2022-11-11T09:40:19.333Z,100978.22
2022-11-11T09:42:06.707Z,100983.59
2022-11-11T09:43:52.317Z,100977.50
2022-11-11T09:45:34.105Z,100985.72
2022-11-11T09:47:05.754Z,100981.22
2022-11-11T09:48:41.085Z,100979.00
2022-11-11T09:50:09.764Z,100985.97
2022-11-11T09:51:39.295Z,100983.50
2022-11-11T09:53:29.182Z,100987.03
2022-11-11T09:54:52.808Z,100995.66
2022-11-11T09:56:31.485Z,100987.75
2022-11-11T09:58:01.228Z,100993.56
2022-11-11T09:59:28.457Z,100996.19
2022-11-11T10:01:02.479Z,101002.34
2022-11-11T10:02:26.099Z,100996.25
2022-11-11T10:03:59.339Z,100989.56
2022-11-11T10:05:37.366Z,100999.50
2022-11-11T10:07:07.064Z,100999.47
2022-11-11T10:08:35.468Z,101009.75
2022-11-11T10:10:26.642Z,101001.59
2022-11-11T10:12:09.628Z,101004.88
2022-11-11T10:13:35.671Z,100998.16
2022-11-11T10:14:57.139Z,100994.81
2022-11-11T10:16:42.156Z,101000.66
2022-11-11T10:18:18.582Z,101001.13
2022-11-11T10:20:01.909Z,101000.34
2022-11-11T10:22:10.535Z,101004.28
2022-11-11T10:23:30.570Z,101003.88
2022-11-11T10:25:09.246Z,100999.97
2022-11-11T10:26:42.148Z,101007.13
2022-11-11T10:28:04.052Z,101011.41
2022-11-11T10:29:30.474Z,101008.41
2022-11-11T10:30:55.080Z,101009.84
2022-11-11T10:32:34.578Z,100995.34
2022-11-11T10:34:05.097Z,100996.44
2022-11-11T10:35:28.563Z,100987.28
2022-11-11T10:36:56.289Z,100991.31
2022-11-11T10:38:31.062Z,100988.66
2022-11-11T10:40:10.129Z,100992.97
2022-11-11T10:41:41.705Z,100993.94
2022-11-11T10:43:02.192Z,100999.19
2022-11-11T10:44:28.478Z,100982.59
2022-11-11T10:45:55.252Z,100987.22
2022-11-11T10:47:27.867Z,100992.06
2022-11-11T10:48:51.867Z,100992.41
2022-11-11T10:50:31.060Z,100989.84
2022-11-11T10:51:58.506Z,100986.72
2022-11-11T10:53:31.656Z,100985.06
2022-11-11T10:55:23.921Z,100983.56
2022-11-11T10:57:08.584Z,100985.59
2022-11-11T10:58:32.193Z,100981.44
2022-11-11T11:00:06.124Z,100978.56
2022-11-11T11:01:34.694Z,100981.56
2022-11-11T11:03:03.274Z,100976.38
2022-11-11T11:04:30.966Z,100976.63
2022-11-11T11:06:18.449Z,100965.28
2022-11-11T11:07:46.894Z,100966.75
2022-11-11T11:09:29.097Z,100960.47
2022-11-11T11:10:58.063Z,100959.53
2022-11-11T11:12:24.840Z,100965.72
2022-11-11T11:13:51.409Z,100964.69
2022-11-11T11:15:17.999Z,100960.78
2022-11-11T11:16:45.049Z,100947.50
2022-11-11T11:18:13.070Z,100949.63
2022-11-11T11:19:34.551Z,100945.25
2022-11-11T11:20:56.872Z,100946.13
2022-11-11T11:22:17.942Z,100943.84
2022-11-11T11:23:42.177Z,100944.72
2022-11-11T11:25:12.378Z,100947.94
2022-11-11T11:27:00.063Z,100942.44
2022-11-11T11:28:21.059Z,100941.88
2022-11-11T11:29:45.132Z,100942.72
2022-11-11T11:31:08.101Z,100948.94
2022-11-11T11:32:30.843Z,100942.75
2022-11-11T11:33:53.062Z,100956.78
2022-11-11T11:35:32.646Z,100958.63
2022-11-11T11:37:01.088Z,100950.47
2022-11-11T11:38:41.542Z,100967.50
2022-11-11T11:40:07.302Z,100959.66
2022-11-11T11:41:40.695Z,100957.19
2022-11-11T11:43:01.514Z,100947.09
2022-11-11T11:44:38.824Z,100949.97
2022-11-11T11:46:06.939Z,100946.91
2022-11-11T11:47:41.534Z,100944.94
2022-11-11T11:49:02.767Z,100934.66
2022-11-11T11:50:35.448Z,100940.72
2022-11-11T11:52:33.600Z,100935.75
2022-11-11T11:54:22.991Z,100934.97
2022-11-11T11:56:19.339Z,100929.66
2022-11-11T11:57:52.385Z,100935.22
2022-11-11T11:59:48.716Z,100939.38
2022-11-11T12:01:41.509Z,100940.78
2022-11-11T12:03:23.870Z,100936.19
2022-11-11T12:05:34.983Z,100935.97
2022-11-11T12:07:12.103Z,100934.72
2022-11-11T12:09:14.591Z,100925.13
2022-11-11T12:10:55.195Z,100927.00
2022-11-11T12:12:47.834Z,100936.97
2022-11-11T12:14:14.170Z,100935.75
2022-11-11T12:15:40.072Z,100936.47
2022-11-11T12:17:32.812Z,100933.25
2022-11-11T12:19:01.744Z,100939.25
2022-11-11T12:20:51.862Z,100937.59
2022-11-11T12:22:44.611Z,100937.13
2022-11-11T12:24:31.870Z,100945.25
2022-11-11T12:26:11.547Z,100948.78
2022-11-11T12:27:44.004Z,100945.72
2022-11-11T12:29:07.336Z,100942.34
2022-11-11T12:30:30.742Z,100941.88
2022-11-11T12:32:14.113Z,100954.44
2022-11-11T12:34:10.694Z,100947.28
2022-11-11T12:35:31.183Z,100940.28
2022-11-11T12:37:08.099Z,100941.66
2022-11-11T12:39:16.641Z,100940.53
2022-11-11T12:41:03.016Z,100946.63
2022-11-11T12:42:38.757Z,100935.88
2022-11-11T12:44:05.618Z,100937.69
2022-11-11T12:45:39.549Z,100937.97
2022-11-11T12:47:18.148Z,100935.81
2022-11-11T12:48:46.445Z,100932.25
2022-11-11T12:50:09.953Z,100935.91
2022-11-11T12:51:42.388Z,100935.69
2022-11-11T12:53:21.478Z,100934.88
2022-11-11T12:55:13.239Z,100931.63
2022-11-11T12:56:59.289Z,100939.28
2022-11-11T12:58:30.470Z,100934.66
2022-11-11T13:00:18.621Z,100936.59
2022-11-11T13:01:57.549Z,100935.81
2022-11-11T13:03:32.232Z,100927.84
2022-11-11T13:05:13.082Z,100934.03
2022-11-11T13:06:57.166Z,100927.28
2022-11-11T13:08:56.435Z,100934.16
2022-11-11T13:10:23.691Z,100933.28
2022-11-11T13:12:02.899Z,100928.84
2022-11-11T13:13:43.575Z,100925.53
2022-11-11T13:15:14.319Z,100925.41
2022-11-11T13:16:35.376Z,100929.56
2022-11-11T13:18:00.546Z,100921.91
2022-11-11T13:19:36.987Z,100916.91
2022-11-11T13:21:01.343Z,100915.16
2022-11-11T13:22:32.629Z,100919.75
2022-11-11T13:23:53.770Z,100919.78
2022-11-11T13:25:22.247Z,100918.88
2022-11-11T13:26:52.027Z,100913.50
2022-11-11T13:28:24.645Z,100914.16
2022-11-11T13:30:04.675Z,100913.97
2022-11-11T13:31:37.434Z,100926.78
2022-11-11T13:33:19.394Z,100920.84
2022-11-11T13:34:45.272Z,100923.69
2022-11-11T13:36:09.778Z,100917.91
2022-11-11T13:37:33.206Z,100917.88
2022-11-11T13:38:57.263Z,100921.09
2022-11-11T13:40:38.985Z,100910.75
2022-11-11T13:42:01.251Z,100915.78
2022-11-11T13:43:28.984Z,100917.19
2022-11-11T13:44:56.816Z,100923.13
2022-11-11T13:46:37.057Z,100915.03
2022-11-11T13:47:58.433Z,100926.53
2022-11-11T13:49:38.789Z,100920.31
2022-11-11T13:51:20.104Z,100934.50
2022-11-11T13:52:55.196Z,100922.28
2022-11-11T13:54:32.970Z,100924.59
2022-11-11T13:56:00.801Z,100920.34
2022-11-11T13:57:24.135Z,100908.69
2022-11-11T13:58:48.989Z,100916.06
2022-11-11T14:00:18.683Z,100910.56
2022-11-11T14:01:42.891Z,100917.53
2022-11-11T14:03:19.885Z,100918.78
2022-11-11T14:05:02.045Z,100914.16
2022-11-11T14:06:22.619Z,100898.22
2022-11-11T14:07:49.269Z,100912.41
2022-11-11T14:09:09.901Z,100911.28
2022-11-11T14:10:30.636Z,100909.44
2022-11-11T14:11:51.605Z,100902.59
2022-11-11T14:13:21.358Z,100909.63
2022-11-11T14:14:50.463Z,100911.41
2022-11-11T14:16:12.625Z,100911.38
2022-11-11T14:17:35.452Z,100916.72
2022-11-11T14:18:56.147Z,100909.00
2022-11-11T14:20:37.672Z,100911.59
2022-11-11T14:22:03.762Z,100919.59
2022-11-11T14:23:41.057Z,100916.03
2022-11-11T14:25:24.592Z,100919.69
2022-11-11T14:27:00.880Z,100927.69
2022-11-11T14:28:28.113Z,100930.44
2022-11-11T14:29:53.852Z,100936.88
2022-11-11T14:31:15.324Z,100930.94
2022-11-11T14:32:35.943Z,100938.94
2022-11-11T14:34:17.589Z,100934.69
2022-11-11T14:35:50.374Z,100932.09
2022-11-11T14:37:31.586Z,100932.59
2022-11-11T14:39:12.939Z,100931.06
2022-11-11T14:40:34.423Z,100926.91
2022-11-11T14:41:55.195Z,100929.81
2022-11-11T14:43:40.938Z,100933.19
2022-11-11T14:45:03.177Z,100941.72
2022-11-11T14:46:23.820Z,100931.06
2022-11-11T14:47:44.728Z,100940.72
2022-11-11T14:49:05.415Z,100939.78
2022-11-11T14:50:31.849Z,100933.78
2022-11-11T14:51:57.470Z,100934.56
2022-11-11T14:53:21.452Z,100934.63
2022-11-11T14:54:47.202Z,100932.81
2022-11-11T14:56:16.328Z,100939.88
2022-11-11T14:57:40.255Z,100941.78
2022-11-11T14:59:07.165Z,100938.41
2022-11-11T15:00:31.462Z,100940.13
2022-11-11T15:01:55.172Z,100948.31
2022-11-11T15:03:25.956Z,100936.34
2022-11-11T15:04:47.724Z,100944.75
2022-11-11T15:06:14.084Z,100947.81
2022-11-11T15:07:58.972Z,100944.50
2022-11-11T15:09:55.061Z,100946.53
2022-11-11T15:11:24.848Z,100948.16
2022-11-11T15:13:10.266Z,100945.50
2022-11-11T15:14:48.829Z,100943.06
2022-11-11T15:16:21.638Z,100939.69
2022-11-11T15:18:23.227Z,100945.91
2022-11-11T15:20:18.816Z,100942.75
2022-11-11T15:22:12.826Z,100936.66
2022-11-11T15:24:12.715Z,100942.03
2022-11-11T15:25:46.828Z,100946.63
2022-11-11T15:27:16.259Z,100940.03
2022-11-11T15:29:07.648Z,100942.06
2022-11-11T15:30:50.930Z,100939.38
2022-11-11T15:32:21.592Z,100942.03
2022-11-11T15:34:01.804Z,100944.09
2022-11-11T15:35:35.001Z,100947.63
2022-11-11T15:37:00.454Z,100943.31
2022-11-11T15:38:21.308Z,100953.06
2022-11-11T15:39:51.367Z,100958.44
2022-11-11T15:41:23.967Z,100959.59
2022-11-11T15:42:47.978Z,100960.53
2022-11-11T15:44:18.561Z,100959.84
2022-11-11T15:45:40.512Z,100964.16
2022-11-11T15:47:01.897Z,100959.81
2022-11-11T15:48:25.477Z,100958.09
2022-11-11T15:49:48.021Z,100960.78
2022-11-11T15:51:30.487Z,100966.06
2022-11-11T15:53:02.930Z,100970.47
2022-11-11T15:54:27.834Z,100967.94
2022-11-11T15:55:53.779Z,100973.22
2022-11-11T15:57:32.260Z,100968.94
2022-11-11T15:58:53.176Z,100973.34
2022-11-11T16:00:27.509Z,100975.16
2022-11-11T16:01:48.479Z,100974.34
2022-11-11T16:03:25.402Z,100970.97
2022-11-11T16:04:55.354Z,100985.75
2022-11-11T16:06:17.152Z,100982.31
2022-11-11T16:07:43.203Z,100977.97
2022-11-11T16:09:04.603Z,100977.91
2022-11-11T16:10:31.733Z,100970.97
2022-11-11T16:11:56.100Z,100967.44
2022-11-11T16:13:16.691Z,100977.94
2022-11-11T16:14:46.217Z,100974.41
2022-11-11T16:16:13.602Z,100971.78
2022-11-11T16:17:40.084Z,100976.19
2022-11-11T16:19:25.273Z,100978.88
2022-11-11T16:21:14.758Z,100986.72
2022-11-11T16:22:37.456Z,100978.91
2022-11-11T16:24:00.960Z,100982.38
2022-11-11T16:25:23.107Z,100975.41
2022-11-11T16:26:44.126Z,100974.47
2022-11-11T16:28:05.105Z,100969.22
2022-11-11T16:29:33.029Z,100971.84
2022-11-11T16:30:53.925Z,100973.63
2022-11-11T16:32:23.275Z,100964.91
2022-11-11T16:33:43.798Z,100960.50
2022-11-11T16:35:40.571Z,100967.50
2022-11-11T16:37:10.995Z,100964.00
2022-11-11T16:38:35.504Z,100964.91
2022-11-11T16:39:56.326Z,100962.28
2022-11-11T16:41:28.251Z,100954.44
2022-11-11T16:42:49.286Z,100951.81
2022-11-11T16:44:34.833Z,100955.28
2022-11-11T16:46:01.674Z,100948.31
2022-11-11T16:47:45.852Z,100940.47